Latest Weather Observations for Camooweal

IDD60801

Issued at 10:01 am CST Wednesday 25 May 2022 (issued every 10 minutes, with the page automatically refreshed every 10 minutes)

About weather observations | Map of weather stations | Latest weather observations for NT | Other Formats
Station Details ID: 037010 Name: CAMOOWEAL TOWNSHIP Lat: -19.92 Lon: 138.12 Height: 231.2 m
Data from the previous 72 hours. | See also: Recent months at Camooweal
Date/Time
CST
Temp
°C
App
Temp
°C
Dew
Point
°C
Rel
Hum
%
Delta-T
°C
Wind Press
QNH
hPa
Press
MSL
hPa
Rain since
9am
mm
Dir  Spd
km/h
Gust
km/h
Spd
kts
Gust
kts
25/10:00am 25.7 23.2 12.2 43 7.8 SE 17 22 9 12 1017.1 1016.2 0.0
25/09:30am 24.8 22.4 12.7 47 7.0 ESE 17 24 9 13 1017.4 1016.6 0.0
25/09:00am 23.7 21.3 12.7 50 6.4 SE 17 22 9 12 1017.6 1016.8 0.0
25/08:30am 21.9 20.2 12.5 55 5.4 ESE 13 17 7 9 1017.4 1016.6 0.0
25/08:00am 19.2 19.0 11.7 62 4.2 SSE 4 9 2 5 1017.4 1016.6 0.0
25/07:30am 14.8 13.9 9.2 69 2.9 S 4 6 2 3 1017.2 1016.4 0.0
25/07:00am 13.9 12.4 8.5 70 2.7 SSW 6 9 3 5 1017.2 1016.4 0.0
25/06:30am 13.7 11.6 8.3 70 2.7 SW 9 11 5 6 1016.8 1015.9 0.0
25/06:00am 14.2 12.5 8.4 68 2.9 SSW 7 9 4 5 1016.4 1015.5 0.0
25/05:30am 14.4 12.9 8.6 68 3.0 SSW 6 7 3 4 1016.1 1015.2 0.0
25/05:00am 14.6 12.6 8.8 68 3.0 SSW 9 9 5 5 1016.1 1015.2 0.0
25/04:30am 15.2 13.8 8.7 65 3.3 SSW 6 9 3 5 1015.6 1014.7 0.0
25/04:00am 15.5 14.1 8.7 64 3.5 SSW 6 7 3 4 1015.6 1014.7 0.0
25/03:30am 15.4 13.4 8.6 64 3.5 SSW 9 11 5 6 1015.6 1014.7 0.0
25/03:00am 15.9 14.0 9.1 64 3.5 SSW 9 11 5 6 1015.6 1014.7 0.0
25/02:30am 16.7 15.3 9.4 62 3.8 SW 7 7 4 4 1015.4 1014.5 0.0
25/02:00am 16.7 15.3 9.4 62 3.8 SSW 7 9 4 5 1015.7 1014.8 0.0
25/01:30am 17.7 16.6 9.8 60 4.2 SSW 6 6 3 3 1016.1 1015.2 0.0
25/01:00am 18.3 16.9 9.6 57 4.6 S 7 9 4 5 1016.0 1015.1 0.0
25/12:30am 19.1 17.4 9.9 55 5.0 S 9 11 5 6 1016.2 1015.3 0.0
25/12:00am 20.0 18.6 9.6 51 5.6 SSE 7 9 4 5 1016.4 1015.5 0.0
 
Date/Time
CST
Temp
°C
App
Temp
°C
Dew
Point
°C
Rel
Hum
%
Delta-T
°C
Wind Press
QNH
hPa
Press
MSL
hPa
Rain since
9am
mm
Dir  Spd
km/h
Gust
km/h
Spd
kts
Gust
kts
24/11:30pm 21.1 19.0 9.7 48 6.2 SE 11 17 6 9 1016.4 1015.5 0.0
24/11:00pm 21.4 18.8 9.3 46 6.5 SSE 13 17 7 9 1016.9 1016.0 0.0
24/10:30pm 21.2 18.5 8.8 45 6.6 SSE 13 17 7 9 1017.0 1016.1 0.0
24/10:00pm 21.2 18.5 9.1 46 6.5 SSE 13 17 7 9 1017.0 1016.1 0.0
24/09:30pm 20.3 18.4 8.9 48 6.1 SSE 9 9 5 5 1017.1 1016.2 0.0
24/09:00pm 21.8 19.5 9.0 44 6.9 SSE 11 13 6 7 1017.1 1016.2 0.0
24/08:30pm 22.0 19.8 9.2 44 6.9 S 11 15 6 8 1017.1 1016.2 0.0
24/08:00pm 22.9 20.5 8.6 40 7.7 SSE 11 15 6 8 1016.8 1015.9 0.0
24/07:30pm 23.2 20.8 8.5 39 7.9 SSE 11 13 6 7 1016.4 1015.5 0.0
24/07:00pm 23.9 21.4 8.3 37 8.4 SSE 11 13 6 7 1016.0 1015.1 0.0
24/06:30pm 25.0 22.1 8.1 34 9.1 S 13 17 7 9 1015.7 1014.8 0.0
24/06:00pm 25.9 23.1 8.4 33 9.5 S 13 17 7 9 1015.3 1014.4 0.0
24/05:30pm 27.2 24.0 8.6 31 10.2 SSE 15 20 8 11 1014.7 1013.9 0.0
24/05:00pm 27.8 24.3 8.6 30 10.6 S 17 22 9 12 1014.6 1013.8 0.0
24/04:30pm 28.0 24.0 8.3 29 10.8 S 19 24 10 13 1014.2 1013.4 0.0
24/04:00pm 28.7 25.9 8.4 28 11.2 SSE 13 22 7 12 1014.1 1013.3 0.0
24/03:30pm 29.2 25.7 8.8 28 11.4 SE 17 26 9 14 1014.0 1013.2 0.0
24/03:00pm 29.3 25.8 8.9 28 11.4 S 17 33 9 18 1014.1 1013.3 0.0
24/02:30pm 29.0 26.2 8.7 28 11.3 SE 13 24 7 13 1014.0 1013.2 0.0
24/02:00pm 28.9 25.2 9.6 30 10.9 S 19 30 10 16 1014.3 1013.5 0.0
24/01:30pm 28.4 24.2 8.1 28 11.1 SE 20 30 11 16 1015.0 1014.2 0.0
24/01:00pm 27.6 23.7 8.5 30 10.5 SE 19 28 10 15 1015.5 1014.6 0.0
24/12:30pm 27.4 24.1 9.7 33 9.9 SE 17 26 9 14 1015.9 1015.0 0.0
24/12:00pm 27.6 24.5 10.3 34 9.8 SE 17 24 9 13 1016.3 1015.4 0.0
24/11:30am 26.9 23.5 11.4 38 8.9 ESE 20 33 11 18 1016.9 1016.0 0.0
24/11:00am 26.5 23.1 11.4 39 8.7 E 20 30 11 16 1017.4 1016.6 0.0
24/10:30am 25.7 22.2 12.2 43 7.8 ESE 22 30 12 16 1017.7 1016.9 0.0
24/10:00am 24.4 21.0 12.4 47 6.9 ESE 22 30 12 16 1018.0 1017.2 0.0
24/09:30am 24.4 20.7 11.4 44 7.4 ESE 22 28 12 15 1018.0 1017.2 0.0
24/09:00am 23.1 19.2 10.9 46 6.8 ESE 22 30 12 16 1017.8 1017.0 0.0
24/08:30am 21.4 18.0 10.6 50 6.0 ESE 19 24 10 13 1017.4 1016.6 0.0
24/08:00am 18.8 16.9 10.6 59 4.5 SE 11 15 6 8 1017.4 1016.6 0.0
24/07:30am 15.4 14.6 9.5 68 3.1 SSE 4 6 2 3 1017.2 1016.4 0.0
24/07:00am 14.8 13.4 9.6 71 2.7 SSE 7 9 4 5 1017.1 1016.2 0.0
24/06:30am 14.8 13.4 9.4 70 2.8 S 7 7 4 4 1016.9 1016.0 0.0
24/06:00am 15.4 14.5 9.3 67 3.2 SE 4 9 2 5 1016.0 1015.1 0.0
24/05:30am 15.6 15.5 9.5 67 3.2 CALM 0 0 0 0 1016.2 1015.3 0.0
24/05:00am 16.2 14.5 9.8 66 3.4 E 9 11 5 6 1015.9 1015.0 0.0
24/04:30am 15.7 14.3 9.4 66 3.3 SE 7 9 4 5 1015.9 1015.0 0.0
24/04:00am 16.3 14.8 9.3 63 3.7 SE 7 9 4 5 1016.1 1015.2 0.0
24/03:30am 17.0 15.2 9.4 61 4.0 SE 9 9 5 5 1016.1 1015.2 0.0
24/03:00am 17.8 15.6 9.4 58 4.4 SE 11 13 6 7 1016.2 1015.3 0.0
24/02:30am 18.4 15.8 9.5 56 4.7 SE 13 17 7 9 1015.9 1015.0 0.0
24/02:00am 18.6 16.1 9.7 56 4.8 SE 13 17 7 9 1016.4 1015.5 0.0
24/01:30am 18.2 16.0 9.5 57 4.6 SSE 11 15 6 8 1016.8 1015.9 0.0
24/01:00am 18.6 16.4 9.4 55 4.9 SE 11 13 6 7 1016.7 1015.8 0.0
24/12:30am 19.5 17.0 9.7 53 5.3 SE 13 15 7 8 1016.8 1015.9 0.0
24/12:00am 19.6 17.5 9.8 53 5.3 SE 11 15 6 8 1017.0 1016.1 0.0
 
Date/Time
CST
Temp
°C
App
Temp
°C
Dew
Point
°C
Rel
Hum
%
Delta-T
°C
Wind Press
QNH
hPa
Press
MSL
hPa
Rain since
9am
mm
Dir  Spd
km/h
Gust
km/h
Spd
kts
Gust
kts
23/11:30pm 19.9 17.4 9.8 52 5.4 SE 13 17 7 9 1017.2 1016.4 0.0
23/11:00pm 19.8 17.8 10.0 53 5.3 SE 11 15 6 8 1017.3 1016.5 0.0
23/10:30pm 20.6 18.5 9.8 50 5.8 SE 11 15 6 8 1017.3 1016.5 0.0
23/10:00pm 21.1 18.6 9.7 48 6.2 SE 13 15 7 8 1017.4 1016.6 0.0
23/09:30pm 21.7 19.3 9.9 47 6.4 SE 13 19 7 10 1017.4 1016.6 0.0
23/09:00pm 21.9 19.7 9.4 45 6.8 SE 11 13 6 7 1017.4 1016.6 0.0
23/08:30pm 22.8 20.3 9.6 43 7.2 SSE 13 17 7 9 1017.3 1016.5 0.0
23/08:00pm 23.4 20.3 9.0 40 7.8 SSE 15 20 8 11 1017.1 1016.2 0.0
23/07:30pm 23.9 21.1 8.7 38 8.2 SSE 13 20 7 11 1016.8 1015.9 0.0
23/07:00pm 24.2 21.3 8.2 36 8.6 SSE 13 17 7 9 1016.4 1015.5 0.0
23/06:30pm 24.9 22.0 8.0 34 9.1 SSE 13 17 7 9 1015.9 1015.0 0.0
23/06:00pm 25.8 22.8 7.9 32 9.7 SSE 13 17 7 9 1015.3 1014.4 0.0
23/05:30pm 27.2 23.2 8.1 30 10.4 SE 19 26 10 14 1014.8 1014.0 0.0
23/05:00pm 28.0 23.8 8.3 29 10.8 SE 20 30 11 16 1014.5 1013.7 0.0
23/04:30pm 28.6 23.9 7.8 27 11.4 SSE 22 30 12 16 1014.4 1013.6 0.0
23/04:00pm 28.9 24.6 8.0 27 11.5 SE 20 33 11 18 1014.4 1013.6 0.0
23/03:30pm 29.0 24.6 7.6 26 11.7 SE 20 32 11 17 1014.5 1013.7 0.0
23/03:00pm 28.8 24.7 7.9 27 11.5 SE 19 32 10 17 1014.6 1013.8 0.0
23/02:30pm 28.9 24.8 8.0 27 11.5 SE 19 30 10 16 1014.9 1014.1 0.0
23/02:00pm 28.9 25.4 8.6 28 11.3 ESE 17 28 9 15 1015.3 1014.4 0.0
23/01:30pm 29.1 25.2 8.7 28 11.3 SE 19 28 10 15 1015.5 1014.6 0.0
23/01:00pm 28.7 24.9 8.9 29 11.0 SSE 19 32 10 17 1016.2 1015.3 0.0
23/12:30pm 28.9 24.9 9.1 29 11.1 SSE 20 28 11 15 1016.9 1016.0 0.0
23/12:00pm 27.4 24.0 9.3 32 10.1 SE 17 24 9 13 1017.2 1016.4 0.0
23/11:30am 27.5 25.0 11.1 36 9.4 SE 15 24 8 13 1017.5 1016.7 0.0
23/11:00am 27.1 23.9 11.2 37 9.1 SE 19 24 10 13 1017.9 1017.1 0.0
23/10:30am 26.3 23.1 12.0 41 8.3 ESE 20 26 11 14 1018.1 1017.3 0.0
23/10:00am 25.6 22.8 13.1 46 7.4 ESE 20 28 11 15 1018.2 1017.4 0.0
23/09:30am 24.7 21.6 13.3 49 6.7 E 22 30 12 16 1018.4 1017.6 0.0
23/09:00am 23.8 22.4 14.5 56 5.6 E 15 24 8 13 1018.2 1017.4 0.0
23/08:30am 21.6 20.4 14.0 62 4.5 E 13 19 7 10 1018.1 1017.3 0.0
23/08:00am 18.2 17.8 12.4 69 3.3 SSW 6 7 3 4 1018.0 1017.2 0.0
23/07:30am 15.7 14.9 10.9 73 2.6 SW 6 7 3 4 1017.7 1016.9 0.0
23/07:00am 14.3 13.0 9.9 75 2.3 SW 7 9 4 5 1017.4 1016.6 0.0
23/06:30am 14.5 13.1 9.7 73 2.5 SSW 7 9 4 5 1016.8 1015.9 0.0
23/06:00am 14.9 15.0 10.1 73 2.5 CALM 0 0 0 0 1016.4 1015.5 0.0
23/05:30am 15.5 15.7 10.5 72 2.7 CALM 0 0 0 0 1016.1 1015.2 0.0
23/05:00am 16.2 16.6 11.2 72 2.7 CALM 0 0 0 0 1016.0 1015.1 0.0
23/04:30am 16.5 15.4 10.8 69 3.1 ESE 7 7 4 4 1015.6 1014.7 0.0
23/04:00am 17.8 16.5 11.4 66 3.5 E 9 11 5 6 1015.3 1014.4 0.0
23/03:30am 17.0 15.6 10.8 67 3.4 ESE 9 13 5 7 1015.0 1014.2 0.0
23/03:00am 16.6 15.5 10.0 65 3.5 SSE 6 6 3 3 1015.6 1014.7 0.0
23/02:30am 17.1 15.9 9.5 61 4.0 SSE 6 7 3 4 1015.4 1014.5 0.0
23/02:00am 17.3 15.9 9.5 60 4.1 SSW 7 9 4 5 1015.6 1014.7 0.0
23/01:30am 18.0 16.2 9.6 58 4.5 SSW 9 11 5 6 1015.7 1014.8 0.0
23/01:00am 18.5 17.1 9.6 56 4.8 SSW 7 9 4 5 1015.7 1014.8 0.0
23/12:30am 18.8 17.0 9.3 54 5.0 SW 9 11 5 6 1015.7 1014.8 0.0
23/12:00am 19.3 18.1 9.5 53 5.2 SSW 6 7 3 4 1015.7 1014.8 0.0
 
Date/Time
CST
Temp
°C
App
Temp
°C
Dew
Point
°C
Rel
Hum
%
Delta-T
°C
Wind Press
QNH
hPa
Press
MSL
hPa
Rain since
9am
mm
Dir  Spd
km/h
Gust
km/h
Spd
kts
Gust
kts
22/11:30pm 19.2 17.8 9.4 53 5.2 SSW 7 9 4 5 1015.8 1014.9 0.0
22/11:00pm 19.2 17.2 8.8 51 5.5 SSW 9 9 5 5 1015.8 1014.9 0.0
22/10:30pm 19.7 18.2 9.0 50 5.7 SSW 7 7 4 4 1016.0 1015.1 0.0
22/10:00pm 19.5 17.5 8.8 50 5.7 S 9 11 5 6 1016.0 1015.1 0.0
22/09:30pm 20.4 17.9 8.4 46 6.3 SSW 11 11 6 6 1015.9 1015.0 0.0
22/09:00pm 22.4 19.6 8.5 41 7.4 S 13 15 7 8 1015.7 1014.8 0.0
22/08:30pm 23.1 20.4 9.1 41 7.6 S 13 19 7 10 1015.6 1014.7 0.0
22/08:00pm 23.2 20.7 9.6 42 7.5 S 13 15 7 8 1015.4 1014.5 0.0
22/07:30pm 23.6 21.4 9.2 40 7.8 S 11 13 6 7 1015.0 1014.2 0.0
22/07:00pm 24.4 21.8 9.2 38 8.3 SSE 13 17 7 9 1014.7 1013.9 0.0
22/06:30pm 24.5 22.6 8.9 37 8.5 SSE 9 15 5 8 1014.5 1013.7 0.0
22/06:00pm 25.9 23.5 8.8 34 9.4 S 11 15 6 8 1014.3 1013.5 0.0
22/05:30pm 27.2 24.6 9.5 33 9.9 S 13 15 7 8 1013.9 1013.1 0.0
22/05:00pm 28.0 24.8 9.8 32 10.3 SSE 17 20 9 11 1013.7 1012.9 0.0
22/04:30pm 28.9 26.4 9.6 30 10.9 SSE 13 20 7 11 1013.5 1012.7 0.0
22/04:00pm 28.1 25.9 9.4 31 10.5 SSE 11 17 6 9 1013.5 1012.7 0.0
22/03:30pm 29.3 25.8 8.9 28 11.4 SSE 17 24 9 13 1013.6 1012.8 0.0
22/03:00pm 30.0 28.7 10.0 29 11.4 SSE 7 17 4 9 1013.7 1012.9 0.0
22/02:30pm 29.0 25.9 10.2 31 10.7 S 17 26 9 14 1013.9 1013.1 0.0
22/02:00pm 29.0 27.0 10.2 31 10.7 S 11 17 6 9 1014.1 1013.3 0.0
22/01:30pm 29.5 26.5 10.6 31 10.9 S 17 24 9 13 1014.4 1013.6 0.0
22/01:00pm 29.3 26.8 10.9 32 10.6 SSW 15 24 8 13 1014.7 1013.9 0.0
22/12:30pm 27.8 25.1 10.5 34 9.8 ESE 15 24 8 13 1015.5 1014.6 0.0
22/12:00pm 27.9 26.2 12.3 38 9.2 SE 13 22 7 12 1016.0 1015.1 0.0
22/11:30am 27.8 26.1 13.7 42 8.4 ESE 15 30 8 16 1016.4 1015.5 0.0
22/11:00am 26.6 24.4 14.4 47 7.4 ESE 19 30 10 16 1017.0 1016.1 0.0
22/10:30am 25.8 23.5 14.6 50 6.8 ESE 20 30 11 16 1017.2 1016.4 0.0
22/10:00am 25.2 23.3 14.3 50 6.5 ESE 17 20 9 11 1017.5 1016.7 0.0

Other formats

Comma delimited format used in spreadsheet applications
http://www.bom.gov.au/fwo/IDD60801/IDD60801.94255.axf

JavaScript Object Notation format (JSON) in row-major order
http://www.bom.gov.au/fwo/IDD60801/IDD60801.94255.json

Data quality

Most of these data are generated automatically and are frequently updated. Quality checks on data are not normally performed. It is possible for incorrect values to appear. Refer to information at About Latest Weather Observations and please check the disclaimer before using these data.